createdAt,value
2023-05-23T00:01:26.144Z,4.47
2023-05-23T00:06:27.718Z,4.70
2023-05-23T00:11:29.468Z,4.07
2023-05-23T00:16:31.094Z,4.47
2023-05-23T00:21:33.408Z,4.25
2023-05-23T00:26:34.956Z,4.78
2023-05-23T00:31:36.598Z,4.30
2023-05-23T00:41:54.904Z,4.75
2023-05-23T00:46:57.708Z,4.43
2023-05-23T00:52:00.794Z,4.97
2023-05-23T00:57:02.695Z,4.82
2023-05-23T01:02:04.588Z,4.43
2023-05-23T01:07:06.265Z,4.45
2023-05-23T01:12:38.594Z,4.22
2023-05-23T01:17:59.347Z,4.60
2023-05-23T01:23:11.753Z,4.47
2023-05-23T01:28:18.757Z,3.83
2023-05-23T01:33:20.689Z,4.43
2023-05-23T01:38:22.255Z,3.72
2023-05-23T01:43:25.283Z,4.32
2023-05-23T01:48:28.914Z,5.70
2023-05-23T01:53:31.362Z,8.50
2023-05-23T01:58:33.233Z,6.80
2023-05-23T02:03:35.386Z,7.53
2023-05-23T02:08:37.034Z,6.40
2023-05-23T02:13:38.554Z,6.35
2023-05-23T02:18:40.304Z,7.60
2023-05-23T02:23:41.856Z,7.75
2023-05-23T02:28:43.552Z,8.57
2023-05-23T02:33:45.111Z,7.60
2023-05-23T02:38:46.667Z,7.43
2023-05-23T02:43:48.265Z,6.22
2023-05-23T02:48:51.259Z,7.13
2023-05-23T02:53:52.781Z,5.50
2023-05-23T02:58:54.706Z,6.53
2023-05-23T03:03:56.528Z,5.50
2023-05-23T03:08:58.106Z,5.63
2023-05-23T03:13:59.643Z,5.97
2023-05-23T03:19:01.419Z,6.40
2023-05-23T03:24:03.382Z,5.18
2023-05-23T03:29:05.681Z,5.13
2023-05-23T03:34:07.298Z,5.30
2023-05-23T03:39:10.833Z,6.07
2023-05-23T03:44:12.480Z,5.63
2023-05-23T03:49:14.385Z,4.43
2023-05-23T03:54:17.995Z,5.10
2023-05-23T03:59:19.768Z,3.13
2023-05-23T04:04:21.647Z,3.58
2023-05-23T04:09:24.893Z,4.47
2023-05-23T04:14:27.453Z,4.35
2023-05-23T04:19:30.208Z,3.25
2023-05-23T04:24:31.851Z,3.97
2023-05-23T04:29:35.970Z,3.22
2023-05-23T04:34:37.982Z,3.28
2023-05-23T04:39:40.140Z,3.42
2023-05-23T04:44:58.676Z,2.40
2023-05-23T04:50:40.603Z,2.20
2023-05-23T04:55:42.693Z,2.47
2023-05-23T05:00:49.014Z,1.98
2023-05-23T05:05:53.533Z,2.20
2023-05-23T05:10:55.976Z,2.78
2023-05-23T05:15:58.792Z,2.53
2023-05-23T05:21:01.156Z,2.80
2023-05-23T05:26:03.324Z,3.05
2023-05-23T05:31:05.562Z,2.58
2023-05-23T05:36:09.976Z,2.45
2023-05-23T05:41:11.886Z,3.25
2023-05-23T05:46:25.562Z,2.65
2023-05-23T05:51:28.818Z,2.03
2023-05-23T05:56:30.812Z,1.55
2023-05-23T06:01:34.768Z,3.13
2023-05-23T06:11:41.337Z,1.35
2023-05-23T06:16:43.433Z,2.00
2023-05-23T06:21:45.193Z,1.58
2023-05-23T06:26:46.900Z,1.52
2023-05-23T06:31:48.979Z,1.08
2023-05-23T06:36:50.664Z,1.63
2023-05-23T06:41:52.200Z,1.17
2023-05-23T06:46:58.672Z,1.52
2023-05-23T06:52:00.291Z,0.73
2023-05-23T06:57:01.918Z,0.75
2023-05-23T07:02:04.074Z,1.23
2023-05-23T07:07:06.133Z,1.02
2023-05-23T07:12:08.020Z,1.00
2023-05-23T07:17:12.672Z,0.85
2023-05-23T07:22:14.576Z,1.52
2023-05-23T07:27:18.163Z,1.17
2023-05-23T07:32:19.916Z,1.30
2023-05-23T07:37:23.271Z,1.73
2023-05-23T07:42:24.920Z,1.42
2023-05-23T07:47:27.590Z,1.27
2023-05-23T07:52:30.834Z,1.10
2023-05-23T07:57:32.878Z,1.33
2023-05-23T08:02:34.593Z,1.63
2023-05-23T08:07:36.670Z,0.52
2023-05-23T08:12:40.108Z,1.20
2023-05-23T08:17:47.526Z,1.10
2023-05-23T08:22:49.267Z,1.33
2023-05-23T08:27:51.722Z,1.80
2023-05-23T08:33:19.432Z,1.50
2023-05-23T08:38:24.103Z,1.58
2023-05-23T08:43:36.541Z,1.65
2023-05-23T08:48:38.922Z,1.20
2023-05-23T08:53:47.125Z,1.90
2023-05-23T08:58:49.133Z,1.40
2023-05-23T09:03:54.089Z,1.33
2023-05-23T09:09:01.990Z,1.38
2023-05-23T09:14:08.222Z,1.73
2023-05-23T09:19:12.026Z,1.27
2023-05-23T09:34:21.323Z,1.17
2023-05-23T09:39:23.025Z,0.77
2023-05-23T09:44:24.647Z,0.80
2023-05-23T09:49:26.579Z,0.82
2023-05-23T09:54:28.429Z,1.25
2023-05-23T09:59:32.209Z,1.30
2023-05-23T10:04:35.283Z,1.20
2023-05-23T10:09:39.860Z,1.48
2023-05-23T10:14:45.428Z,1.02
2023-05-23T10:19:58.482Z,1.98
2023-05-23T10:25:00.242Z,1.42
2023-05-23T10:30:01.866Z,1.40
2023-05-23T10:35:09.890Z,1.48
2023-05-23T10:40:49.108Z,1.50
2023-05-23T10:45:52.009Z,1.38
2023-05-23T10:51:03.610Z,2.00
2023-05-23T10:56:20.660Z,1.38
2023-05-23T11:01:23.769Z,1.85
2023-05-23T11:06:38.546Z,1.20
2023-05-23T11:11:52.167Z,1.58
2023-05-23T11:16:53.768Z,1.58
2023-05-23T11:22:02.582Z,0.75
2023-05-23T11:27:04.340Z,1.20
2023-05-23T11:32:16.066Z,1.77
2023-05-23T11:37:19.461Z,1.27
2023-05-23T11:42:22.283Z,1.23
2023-05-23T11:47:23.827Z,1.65
2023-05-23T11:52:32.121Z,1.45
2023-05-23T11:57:33.829Z,1.05
2023-05-23T12:02:42.909Z,1.70
2023-05-23T12:07:49.317Z,1.20
2023-05-23T12:12:51.448Z,1.08
2023-05-23T12:17:54.193Z,1.60
2023-05-23T12:22:57.116Z,1.48
2023-05-23T12:27:58.694Z,1.08
2023-05-23T12:33:00.308Z,1.75
2023-05-23T12:38:01.855Z,1.30
2023-05-23T12:43:03.446Z,1.02
2023-05-23T12:48:07.229Z,1.10
2023-05-23T12:53:08.803Z,1.35
2023-05-23T12:58:10.421Z,0.80
2023-05-23T13:03:11.955Z,1.17
2023-05-23T13:08:13.634Z,0.80
2023-05-23T13:13:15.888Z,1.13
2023-05-23T13:18:17.673Z,1.50
2023-05-23T13:23:19.341Z,1.60
2023-05-23T13:28:20.946Z,0.80
2023-05-23T13:33:23.589Z,1.20
2023-05-23T13:38:27.480Z,1.30
2023-05-23T13:43:29.109Z,1.38
2023-05-23T13:48:30.826Z,0.98
2023-05-23T13:53:32.666Z,0.80
2023-05-23T13:58:34.284Z,1.15
2023-05-23T14:03:36.699Z,0.93
2023-05-23T14:08:38.215Z,1.70
2023-05-23T14:13:40.012Z,1.60
2023-05-23T14:18:41.574Z,0.95
2023-05-23T14:23:43.093Z,1.30
2023-05-23T14:28:44.630Z,0.95
2023-05-23T14:33:46.351Z,1.00
2023-05-23T14:38:47.979Z,0.90
2023-05-23T14:43:49.601Z,1.20
2023-05-23T14:48:51.940Z,0.93
2023-05-23T14:53:53.700Z,1.33
2023-05-23T14:58:57.417Z,0.88
2023-05-23T15:03:58.986Z,0.57
2023-05-23T15:09:04.201Z,1.05
2023-05-23T15:14:06.022Z,0.82
2023-05-23T15:19:07.696Z,0.70
2023-05-23T15:24:09.325Z,0.88
2023-05-23T15:29:12.428Z,1.10
2023-05-23T15:34:14.002Z,1.45
2023-05-23T15:39:16.274Z,0.93
2023-05-23T15:44:20.881Z,1.35
2023-05-23T15:49:26.375Z,0.50
2023-05-23T15:54:28.600Z,1.23
2023-05-23T15:59:31.497Z,0.95
2023-05-23T16:04:33.315Z,0.90
2023-05-23T16:09:34.920Z,0.93
2023-05-23T16:14:36.531Z,0.47
2023-05-23T16:19:38.123Z,1.02
2023-05-23T16:24:39.879Z,0.90
2023-05-23T16:29:41.462Z,0.80
2023-05-23T16:34:45.152Z,1.02
2023-05-23T16:39:49.994Z,0.90
2023-05-23T16:44:52.039Z,0.77
2023-05-23T16:49:53.597Z,0.50
2023-05-23T16:54:55.789Z,0.40
2023-05-23T16:59:57.526Z,1.30
2023-05-23T17:04:59.939Z,1.15
2023-05-23T17:10:01.638Z,1.20
2023-05-23T17:15:03.967Z,0.70
2023-05-23T17:20:06.179Z,1.08
2023-05-23T17:25:08.072Z,0.95
2023-05-23T17:30:14.404Z,0.55
2023-05-23T17:35:15.938Z,1.02
2023-05-23T17:40:17.518Z,0.70
2023-05-23T17:45:19.153Z,0.88
2023-05-23T17:50:20.808Z,0.77
2023-05-23T17:55:22.309Z,0.98
2023-05-23T18:00:24.196Z,0.75
2023-05-23T18:05:25.802Z,0.60
2023-05-23T18:10:27.352Z,1.05
2023-05-23T18:15:28.922Z,0.70
2023-05-23T18:25:31.986Z,0.75
2023-05-23T18:30:33.854Z,1.08
2023-05-23T18:35:35.457Z,0.70
2023-05-23T18:40:37.094Z,0.77
2023-05-23T18:45:38.666Z,0.60
2023-05-23T18:50:40.822Z,0.55
2023-05-23T18:55:42.608Z,1.13
2023-05-23T19:00:44.736Z,0.60
2023-05-23T19:05:46.541Z,1.08
2023-05-23T19:10:48.034Z,0.57
2023-05-23T19:15:50.357Z,1.52
2023-05-23T19:20:52.359Z,0.93
2023-05-23T19:25:53.876Z,0.85
2023-05-23T19:30:55.479Z,0.55
2023-05-23T19:35:57.331Z,0.57
2023-05-23T19:40:58.912Z,1.58
2023-05-23T19:46:00.512Z,1.02
2023-05-23T19:51:03.177Z,1.48
2023-05-23T19:56:05.125Z,1.45
2023-05-23T20:01:06.834Z,0.80
2023-05-23T20:06:08.451Z,0.82
2023-05-23T20:11:13.173Z,0.68
2023-05-23T20:16:14.805Z,0.70
2023-05-23T20:21:16.525Z,1.20
2023-05-23T20:26:18.182Z,0.68
2023-05-23T20:31:19.840Z,0.90
2023-05-23T20:36:21.425Z,0.50
2023-05-23T20:41:23.283Z,0.98
2023-05-23T20:46:26.205Z,0.85
2023-05-23T20:51:27.791Z,0.70
2023-05-23T20:56:30.775Z,0.90
2023-05-23T21:01:32.890Z,0.60
2023-05-23T21:06:34.634Z,2.03
2023-05-23T21:11:36.471Z,1.00
2023-05-23T21:16:38.158Z,0.70
2023-05-23T21:21:39.793Z,1.30
2023-05-23T21:26:41.330Z,0.52
2023-05-23T21:31:42.931Z,1.52
2023-05-23T21:36:44.538Z,0.68
2023-05-23T21:41:46.136Z,0.80
2023-05-23T21:46:47.697Z,1.73
2023-05-23T21:51:49.836Z,1.27
2023-05-23T21:56:51.342Z,0.57
2023-05-23T22:01:53.058Z,1.25
2023-05-23T22:06:54.870Z,1.00
2023-05-23T22:11:56.609Z,0.65
2023-05-23T22:17:01.911Z,1.33
2023-05-23T22:22:03.590Z,0.90
2023-05-23T22:27:05.388Z,1.38
2023-05-23T22:32:07.062Z,2.05
2023-05-23T22:37:09.536Z,1.08
2023-05-23T22:42:11.057Z,1.20
2023-05-23T22:47:14.084Z,1.95
2023-05-23T22:52:16.549Z,1.85
2023-05-23T22:57:18.239Z,1.17
2023-05-23T23:02:19.845Z,1.63
2023-05-23T23:07:21.420Z,0.80
2023-05-23T23:12:23.370Z,1.30
2023-05-23T23:17:24.975Z,1.17
2023-05-23T23:22:26.801Z,1.00
2023-05-23T23:27:30.825Z,1.58
2023-05-23T23:32:34.197Z,2.13
2023-05-23T23:37:36.034Z,1.15
2023-05-23T23:42:37.574Z,1.77
2023-05-23T23:47:39.106Z,1.00
2023-05-23T23:52:40.793Z,1.38
2023-05-23T23:57:42.398Z,1.20
